Time;durP1;ratioP1;P1;durP2;ratioP2;P2;SDS_P1;SDS_P2;PMS_P1;PMS_P2;Temp;Humidity;BMP_temperature;BMP_pressure;BME280_temperature;BME280_humidity;BME280_pressure;Samples;Min_cycle;Max_cycle;Signal;HPM_P1;HPM_P2
2022/11/02 00:00:33;;;;;;;2.60;2.40;;;;;;;8.96;100.00;98110.56;5021963;28;20453;-83
2022/11/02 00:02:59;;;;;;;6.78;3.10;;;;;;;9.09;100.00;98116.78;5045707;28;20033;-82
2022/11/02 00:05:25;;;;;;;4.65;2.75;;;;;;;9.39;100.00;98117.06;5036345;28;20033;-81
2022/11/02 00:07:52;;;;;;;8.85;3.08;;;;;;;9.33;100.00;98122.31;5017653;28;20494;-82
2022/11/02 00:10:21;;;;;;;5.15;2.28;;;;;;;9.58;100.00;98135.50;5038138;28;20100;-83
2022/11/02 00:12:48;;;;;;;4.55;3.10;;;;;;;9.44;100.00;98134.78;5029768;28;20470;-83
2022/11/02 00:15:14;;;;;;;3.78;3.28;;;;;;;9.37;100.00;98147.88;5051290;28;20021;-83
2022/11/02 00:17:43;;;;;;;9.00;3.80;;;;;;;9.21;100.00;98158.84;5050622;28;20027;-83
2022/11/02 00:20:13;;;;;;;6.47;3.47;;;;;;;9.32;100.00;98157.38;5024000;28;20490;-82
2022/11/02 00:22:39;;;;;;;6.97;3.40;;;;;;;9.08;100.00;98163.09;5052642;28;20033;-83
2022/11/02 00:25:06;;;;;;;5.80;3.40;;;;;;;8.66;100.00;98171.25;5025429;28;20383;-84
2022/11/02 00:27:34;;;;;;;4.75;3.03;;;;;;;8.44;100.00;98179.25;5024485;28;20029;-83
2022/11/02 00:30:00;;;;;;;4.03;2.88;;;;;;;8.02;100.00;98173.41;5042771;28;20033;-84
2022/11/02 00:32:26;;;;;;;5.55;2.63;;;;;;;8.37;100.00;98182.91;5057131;28;20385;-82
2022/11/02 00:34:51;;;;;;;6.22;2.22;;;;;;;8.10;100.00;98173.25;5043966;28;20115;-82
2022/11/02 00:37:17;;;;;;;6.70;2.00;;;;;;;8.33;100.00;98182.50;5035998;28;20040;-84
2022/11/02 00:39:43;;;;;;;3.17;2.00;;;;;;;8.04;100.00;98184.47;5041651;28;20525;-84
2022/11/02 00:42:08;;;;;;;4.10;1.90;;;;;;;8.19;100.00;98186.09;5041963;28;20036;-84
2022/11/02 00:44:34;;;;;;;5.38;2.20;;;;;;;8.43;100.00;98174.25;5041295;28;20112;-85
2022/11/02 00:47:00;;;;;;;5.20;2.00;;;;;;;8.11;100.00;98174.84;5043863;28;20507;-83
2022/11/02 00:49:26;;;;;;;6.07;2.38;;;;;;;8.02;100.00;98194.31;5022630;28;20047;-84
2022/11/02 00:51:52;;;;;;;2.90;1.80;;;;;;;7.97;100.00;98194.13;5039487;28;20029;-83
2022/11/02 00:54:18;;;;;;;2.78;1.90;;;;;;;8.14;100.00;98195.34;5028583;28;20169;-84
2022/11/02 00:56:43;;;;;;;3.60;2.17;;;;;;;8.02;100.00;98207.38;5038446;28;20079;-83
2022/11/02 00:59:09;;;;;;;5.60;3.10;;;;;;;7.86;100.00;98193.72;5050960;28;20033;-83
2022/11/02 01:01:35;;;;;;;5.35;3.60;;;;;;;8.07;100.00;98215.47;5048707;28;20401;-84
2022/11/02 01:04:01;;;;;;;7.30;4.85;;;;;;;8.08;100.00;98224.91;5024479;28;20033;-83
2022/11/02 01:06:27;;;;;;;9.05;6.78;;;;;;;7.86;100.00;98219.84;5044099;28;20037;-84
2022/11/02 01:08:53;;;;;;;6.93;4.90;;;;;;;8.02;100.00;98222.28;5043752;28;20028;-82
2022/11/02 01:11:21;;;;;;;5.47;4.30;;;;;;;7.96;100.00;98224.69;5024450;28;20022;-84
2022/11/02 01:13:50;;;;;;;4.18;3.47;;;;;;;7.74;100.00;98244.91;5049422;28;20024;-82
2022/11/02 01:16:15;;;;;;;4.50;3.10;;;;;;;7.82;100.00;98238.72;5042042;28;20031;-83
2022/11/02 01:18:41;;;;;;;5.75;3.03;;;;;;;8.05;100.00;98264.50;5061470;28;20029;-83
2022/11/02 01:21:08;;;;;;;3.53;2.25;;;;;;;8.09;100.00;98260.50;5043705;28;20026;-84
2022/11/02 01:23:35;;;;;;;4.63;2.20;;;;;;;8.15;100.00;98272.78;5031402;28;20120;-82
2022/11/02 01:26:08;;;;;;;4.45;2.08;;;;;;;8.42;100.00;98280.66;5054445;28;20446;-83
2022/11/02 01:28:34;;;;;;;5.40;1.70;;;;;;;8.17;100.00;98287.44;5054396;28;20072;-82
2022/11/02 01:31:18;;;;;;;2.92;2.13;;;;;;;8.30;100.00;98287.50;5040389;28;20064;-83
2022/11/02 01:33:45;;;;;;;3.95;2.10;;;;;;;8.52;100.00;98285.53;5046873;28;20049;-84
2022/11/02 01:36:12;;;;;;;2.42;1.88;;;;;;;8.54;100.00;98299.22;5027548;28;20441;-83
2022/11/02 01:38:38;;;;;;;4.90;2.08;;;;;;;8.55;100.00;98300.03;5029713;28;20033;-84
2022/11/02 01:41:04;;;;;;;4.72;2.05;;;;;;;8.39;100.00;98299.38;5024557;28;20025;-85
2022/11/02 01:43:32;;;;;;;4.95;2.38;;;;;;;8.54;100.00;98298.41;5048691;28;20027;-84
2022/11/02 01:46:05;;;;;;;6.57;2.80;;;;;;;8.54;100.00;98298.41;5022119;28;20103;-83
2022/11/02 01:48:39;;;;;;;6.57;3.38;;;;;;;8.38;100.00;98302.19;5042782;28;20037;-83
2022/11/02 01:51:32;;;;;;;5.47;3.70;;;;;;;8.21;100.00;98299.13;5032976;28;20458;-83
2022/11/02 01:54:24;;;;;;;11.00;6.67;;;;;;;8.20;100.00;98314.00;5044160;28;20043;-83
2022/11/02 01:56:55;;;;;;;10.65;8.45;;;;;;;8.31;100.00;98312.63;5026898;28;20032;-83
2022/11/02 01:59:27;;;;;;;19.25;10.93;;;;;;;8.25;100.00;98311.59;5041234;28;20036;-83
2022/11/02 02:01:53;;;;;;;19.73;10.85;;;;;;;8.30;100.00;98300.56;5044768;28;20021;-83
2022/11/02 02:04:19;;;;;;;43.35;12.77;;;;;;;8.19;100.00;98315.03;5043010;28;20024;-83
2022/11/02 02:06:45;;;;;;;17.58;11.05;;;;;;;8.17;100.00;98316.22;5030220;28;20033;-84
2022/11/02 02:09:13;;;;;;;17.58;9.55;;;;;;;8.22;100.00;98321.66;5037446;28;20489;-83
2022/11/02 02:11:39;;;;;;;20.13;10.13;;;;;;;8.20;100.00;98339.34;5020390;28;20467;-84
2022/11/02 02:14:11;;;;;;;18.85;10.73;;;;;;;8.24;100.00;98324.88;5042666;28;20064;-84
2022/11/02 02:16:55;;;;;;;21.50;10.88;;;;;;;8.37;100.00;98342.41;5040922;28;20082;-82
2022/11/02 02:19:33;;;;;;;;;;;;;;;8.17;100.00;98335.31;5044045;28;20082;-82
2022/11/02 02:22:29;;;;;;;12.75;5.28;;;;;;;8.24;100.00;98351.00;5028038;28;20323;-83
2022/11/02 02:25:46;;;;;;;6.82;3.13;;;;;;;8.24;100.00;98343.97;5042441;28;20037;-84
2022/11/02 02:28:32;;;;;;;7.05;2.30;;;;;;;8.17;100.00;98358.03;5026853;28;20037;-83
2022/11/02 02:31:21;;;;;;;7.85;2.35;;;;;;;7.97;100.00;98351.75;5030763;28;20024;-83
2022/11/02 02:33:56;;;;;;;6.93;2.13;;;;;;;8.09;100.00;98357.22;5027970;28;20481;-84
2022/11/02 02:36:33;;;;;;;14.57;1.80;;;;;;;7.95;100.00;98340.66;5063421;28;20089;-82
2022/11/02 02:39:09;;;;;;;7.68;1.95;;;;;;;8.04;100.00;98343.91;5025883;28;20029;-83
2022/11/02 02:41:38;;;;;;;6.93;1.92;;;;;;;7.85;100.00;98343.63;5043090;28;20028;-83
2022/11/02 02:44:11;;;;;;;6.38;2.05;;;;;;;7.81;100.00;98347.63;5042594;28;20035;-82
2022/11/02 02:46:45;;;;;;;10.77;2.10;;;;;;;8.00;100.00;98353.13;4987962;28;1162883;-84
2022/11/02 02:49:17;;;;;;;8.15;1.80;;;;;;;7.75;100.00;98358.03;5041122;28;20558;-83
2022/11/02 02:51:44;;;;;;;7.20;2.03;;;;;;;7.91;100.00;98354.31;5063910;28;20478;-83
2022/11/02 02:54:24;;;;;;;3.50;1.65;;;;;;;7.84;100.00;98356.91;5028281;28;20060;-82
2022/11/02 02:56:55;;;;;;;11.50;2.00;;;;;;;7.63;100.00;98355.16;5027934;28;20024;-83
2022/11/02 02:59:36;;;;;;;12.27;2.00;;;;;;;7.82;100.00;98338.78;5042966;28;20036;-83
2022/11/02 03:02:06;;;;;;;16.73;3.08;;;;;;;7.72;100.00;98356.63;5036092;28;20028;-83
2022/11/02 03:04:37;;;;;;;19.67;2.65;;;;;;;7.70;100.00;98350.78;5045114;28;20032;-82
2022/11/02 03:07:17;;;;;;;17.17;2.85;;;;;;;7.98;100.00;98362.97;5029834;28;20107;-83
2022/11/02 03:10:20;;;;;;;16.05;2.40;;;;;;;7.81;100.00;98368.53;5054163;28;20067;-83
2022/11/02 03:13:19;;;;;;;16.13;2.35;;;;;;;7.72;100.00;98364.47;5028440;28;20501;-82
2022/11/02 03:16:00;;;;;;;8.82;2.00;;;;;;;7.71;100.00;98378.53;5028065;28;20040;-83
2022/11/02 03:18:41;;;;;;;10.40;2.53;;;;;;;7.70;100.00;98393.38;5049391;28;20028;-83
2022/11/02 03:21:35;;;;;;;7.80;2.55;;;;;;;7.75;100.00;98400.66;5021904;28;20040;-82
2022/11/02 03:24:21;;;;;;;;;;;;;;;7.68;100.00;98410.25;5006753;28;20548;-82
2022/11/02 03:27:00;;;;;;;11.90;2.10;;;;;;;7.79;100.00;98417.56;5043718;28;20051;-83
2022/11/02 03:29:39;;;;;;;8.73;2.40;;;;;;;7.80;100.00;98419.16;5037380;28;20017;-83
2022/11/02 03:32:34;;;;;;;10.35;2.30;;;;;;;7.72;100.00;98421.94;5046802;28;20386;-82
2022/11/02 03:35:05;;;;;;;9.35;1.95;;;;;;;7.80;100.00;98424.41;5046269;28;20037;-84
2022/11/02 03:37:40;;;;;;;6.25;1.77;;;;;;;7.64;100.00;98429.91;5041039;28;20083;-83
2022/11/02 03:40:29;;;;;;;13.35;2.78;;;;;;;7.83;100.00;98424.00;5030178;28;20037;-83
2022/11/02 03:42:56;;;;;;;11.80;2.10;;;;;;;7.65;100.00;98432.34;5010865;28;20128;-84
2022/11/02 03:45:33;;;;;;;14.05;2.35;;;;;;;7.76;100.00;98432.78;5023419;28;20061;-83
2022/11/02 03:48:03;;;;;;;9.73;2.90;;;;;;;7.65;100.00;98416.66;5040834;28;20029;-84
2022/11/02 03:50:31;;;;;;;8.20;2.20;;;;;;;7.82;100.00;98443.28;5041850;28;20027;-83
2022/11/02 03:53:03;;;;;;;9.82;2.10;;;;;;;7.75;100.00;98437.22;5053531;28;20029;-85
2022/11/02 03:55:37;;;;;;;12.40;1.95;;;;;;;7.76;100.00;98451.91;5053071;28;20040;-83
2022/11/02 03:58:03;;;;;;;9.90;2.13;;;;;;;7.69;100.00;98451.06;5041122;28;20040;-82
2022/11/02 04:00:35;;;;;;;13.98;2.28;;;;;;;7.89;100.00;98448.56;5041592;28;20032;-82
2022/11/02 04:03:11;;;;;;;14.15;2.47;;;;;;;7.63;100.00;98457.03;5042273;28;20038;-83
2022/11/02 04:05:36;;;;;;;7.13;1.85;;;;;;;7.72;100.00;98453.28;5023867;28;20170;-83
2022/11/02 04:08:23;;;;;;;8.40;2.35;;;;;;;7.57;100.00;98464.63;5049022;28;20109;-83
2022/11/02 04:16:19;;;;;;;9.57;2.30;;;;;;;7.47;100.00;98471.16;5059390;28;20032;-83
2022/11/02 04:21:30;;;;;;;8.65;2.15;;;;;;;7.46;100.00;98470.34;5042574;28;20489;-82
2022/11/02 04:26:40;;;;;;;13.43;1.90;;;;;;;7.51;100.00;98468.00;5042697;28;20131;-82
2022/11/02 04:29:05;;;;;;;11.05;2.55;;;;;;;7.55;100.00;98471.84;5039835;28;20108;-83
2022/11/02 04:31:31;;;;;;;16.75;2.33;;;;;;;7.69;100.00;98469.34;5039362;28;20037;-81
2022/11/02 04:33:58;;;;;;;12.90;2.40;;;;;;;7.58;100.00;98468.06;5039070;28;20368;-83
2022/11/02 04:36:24;;;;;;;14.32;2.90;;;;;;;7.63;100.00;98459.63;5024727;28;20026;-82
2022/11/02 04:38:50;;;;;;;11.57;2.40;;;;;;;7.59;100.00;98459.22;5060413;28;20388;-82
2022/11/02 04:44:03;;;;;;;14.40;2.10;;;;;;;7.47;100.00;98465.94;5042477;28;20026;-83
2022/11/02 04:46:32;;;;;;;20.65;2.35;;;;;;;7.50;100.00;98463.78;5026300;28;20082;-83
2022/11/02 04:48:57;;;;;;;10.27;2.05;;;;;;;7.51;100.00;98465.41;5053498;28;20029;-83
2022/11/02 04:51:25;;;;;;;11.65;2.63;;;;;;;7.33;100.00;98470.25;5021737;28;20025;-82
2022/11/02 04:53:53;;;;;;;8.20;1.88;;;;;;;7.41;100.00;98485.78;5040685;28;20082;-81
2022/11/02 04:56:19;;;;;;;10.35;2.65;;;;;;;7.54;100.00;98496.34;5039935;28;20475;-83
2022/11/02 04:58:49;;;;;;;11.00;2.65;;;;;;;7.44;100.00;98493.25;5025275;28;20079;-82
2022/11/02 05:01:16;;;;;;;6.60;2.10;;;;;;;7.46;100.00;98506.13;5039486;28;20527;-82
2022/11/02 05:03:42;;;;;;;12.70;2.17;;;;;;;7.39;100.00;98498.22;5031551;28;20111;-82
2022/11/02 05:06:11;;;;;;;8.45;1.90;;;;;;;7.28;100.00;98505.56;5039972;28;20452;-82
2022/11/02 05:08:37;;;;;;;10.50;2.22;;;;;;;7.36;100.00;98516.88;5022319;28;20025;-83
2022/11/02 05:11:03;;;;;;;12.38;1.70;;;;;;;7.39;100.00;98503.44;5056200;28;20528;-82
2022/11/02 05:13:28;;;;;;;10.35;2.35;;;;;;;7.40;100.00;98513.72;5011959;28;20031;-83
2022/11/02 05:15:55;;;;;;;7.47;2.50;;;;;;;7.45;100.00;98526.19;5041765;28;20030;-82
2022/11/02 05:18:29;;;;;;;8.00;3.03;;;;;;;7.27;100.00;98531.84;5046026;28;20032;-83
2022/11/02 05:21:00;;;;;;;8.85;1.85;;;;;;;7.37;100.00;98540.19;5037434;28;20215;-85
2022/11/02 05:23:26;;;;;;;7.03;1.75;;;;;;;7.35;100.00;98542.16;5049893;28;20112;-83
2022/11/02 05:26:03;;;;;;;7.13;1.80;;;;;;;7.29;100.00;98546.34;5038679;28;20029;-83
2022/11/02 05:28:30;;;;;;;16.27;2.22;;;;;;;7.29;100.00;98554.19;5024293;28;20052;-82
2022/11/02 05:30:59;;;;;;;4.43;1.80;;;;;;;7.38;100.00;98556.66;5044380;28;20498;-82
2022/11/02 05:33:27;;;;;;;14.82;1.98;;;;;;;7.37;100.00;98555.03;5045083;28;20043;-82
2022/11/02 05:35:55;;;;;;;13.10;2.20;;;;;;;7.44;100.00;98566.34;5044759;28;20039;-82
2022/11/02 05:38:20;;;;;;;22.02;2.20;;;;;;;7.25;100.00;98562.56;5035525;28;20067;-82
2022/11/02 05:40:54;;;;;;;11.52;2.40;;;;;;;7.41;100.00;98562.31;5021190;28;20029;-83
2022/11/02 05:43:20;;;;;;;11.02;1.98;;;;;;;7.43;100.00;98569.97;5039641;28;20024;-82
2022/11/02 05:45:57;;;;;;;9.70;2.00;;;;;;;7.36;100.00;98563.88;5038166;28;20137;-82
2022/11/02 05:48:24;;;;;;;6.70;1.70;;;;;;;7.26;100.00;98557.13;5038731;28;20469;-82
2022/11/02 05:50:55;;;;;;;9.13;2.10;;;;;;;7.21;100.00;98569.94;5043151;28;20030;-82
2022/11/02 05:53:21;;;;;;;9.20;1.92;;;;;;;7.09;100.00;98566.22;5045313;28;20116;-82
2022/11/02 05:55:46;;;;;;;11.63;2.20;;;;;;;7.01;100.00;98561.91;5041647;28;20086;-82
2022/11/02 05:58:12;;;;;;;10.68;2.42;;;;;;;7.06;100.00;98569.16;5045377;28;20424;-82
2022/11/02 06:00:39;;;;;;;10.13;2.20;;;;;;;6.96;100.00;98559.81;5057402;28;20051;-82
2022/11/02 06:03:07;;;;;;;11.95;2.25;;;;;;;6.91;100.00;98570.00;5039327;28;20040;-82
2022/11/02 06:05:33;;;;;;;16.30;2.60;;;;;;;6.81;100.00;98564.25;5041817;28;20039;-82
2022/11/02 06:07:59;;;;;;;10.75;2.47;;;;;;;6.88;100.00;98567.78;5041865;28;20025;-82
2022/11/02 06:10:27;;;;;;;8.85;3.00;;;;;;;6.75;100.00;98557.16;5024021;28;20476;-83
2022/11/02 06:13:00;;;;;;;9.73;2.40;;;;;;;6.88;100.00;98573.00;5027743;28;20041;-83
2022/11/02 06:15:27;;;;;;;9.73;1.92;;;;;;;6.92;100.00;98582.06;5029414;28;20543;-83
2022/11/02 06:17:53;;;;;;;12.55;2.40;;;;;;;6.84;100.00;98567.31;5055089;28;20052;-83
2022/11/02 06:20:19;;;;;;;12.57;2.15;;;;;;;6.83;100.00;98575.31;5044496;28;20021;-82
2022/11/02 06:22:48;;;;;;;7.78;2.22;;;;;;;6.85;100.00;98568.09;5049788;28;20028;-82
2022/11/02 06:25:15;;;;;;;14.50;2.25;;;;;;;6.77;100.00;98574.22;5047835;28;20028;-82
2022/11/02 06:27:41;;;;;;;15.25;2.08;;;;;;;6.79;100.00;98579.28;5042561;28;20044;-84
2022/11/02 06:30:07;;;;;;;12.43;2.67;;;;;;;6.72;100.00;98573.97;5026870;28;20402;-82
2022/11/02 06:32:33;;;;;;;9.90;1.90;;;;;;;6.67;100.00;98577.13;5046020;28;20036;-84
2022/11/02 06:34:58;;;;;;;11.07;1.83;;;;;;;6.69;100.00;98572.56;5051044;28;20042;-82
2022/11/02 06:37:24;;;;;;;9.68;2.03;;;;;;;6.71;100.00;98586.22;5027520;28;20087;-81
2022/11/02 06:39:50;;;;;;;6.57;1.60;;;;;;;6.68;100.00;98580.53;5046628;28;20032;-81
2022/11/02 06:42:15;;;;;;;7.35;2.22;;;;;;;6.68;100.00;98589.19;5027576;28;20082;-81
2022/11/02 06:44:41;;;;;;;13.00;2.88;;;;;;;6.67;100.00;98582.31;5029026;28;20029;-81
2022/11/02 06:47:06;;;;;;;8.43;2.08;;;;;;;6.67;100.00;98576.31;5045346;28;20052;-83
2022/11/02 06:49:32;;;;;;;13.38;2.35;;;;;;;6.62;100.00;98568.22;5037764;28;20078;-82
2022/11/02 06:51:58;;;;;;;14.85;2.47;;;;;;;6.63;100.00;98573.25;5041695;28;20049;-81
2022/11/02 06:54:23;;;;;;;15.23;2.13;;;;;;;6.65;100.00;98576.50;5054575;28;20470;-81
2022/11/02 06:56:49;;;;;;;10.02;2.15;;;;;;;6.62;100.00;98569.03;5039418;28;20497;-82
2022/11/02 06:59:15;;;;;;;24.65;2.70;;;;;;;6.68;100.00;98572.72;5016012;28;20032;-80
2022/11/02 07:01:41;;;;;;;8.60;1.90;;;;;;;6.67;100.00;98571.91;5036001;28;20482;-81
2022/11/02 07:04:06;;;;;;;7.95;2.15;;;;;;;6.67;100.00;98571.91;5049183;28;20115;-81
2022/11/02 07:06:33;;;;;;;12.57;2.80;;;;;;;6.69;100.00;98564.72;5049383;28;20072;-82
2022/11/02 07:08:58;;;;;;;19.08;3.45;;;;;;;6.54;100.00;98569.94;5042196;28;20386;-80
2022/11/02 07:11:24;;;;;;;15.43;3.17;;;;;;;6.66;100.00;98578.09;5040496;28;20025;-80
2022/11/02 07:13:49;;;;;;;10.02;2.55;;;;;;;6.64;100.00;98574.06;5040359;28;20425;-83
2022/11/02 07:16:15;;;;;;;11.50;2.50;;;;;;;6.69;100.00;98575.16;5041093;28;20092;-83
2022/11/02 07:18:41;;;;;;;16.70;2.42;;;;;;;6.76;100.00;98577.03;5033178;28;20066;-79
2022/11/02 07:21:10;;;;;;;12.88;2.60;;;;;;;6.81;100.00;98570.28;5038690;28;20483;-81
2022/11/02 07:23:35;;;;;;;6.82;1.90;;;;;;;6.90;100.00;98578.00;5040629;28;20508;-80
2022/11/02 07:26:02;;;;;;;11.57;2.22;;;;;;;6.85;100.00;98574.16;5022890;28;20033;-80
2022/11/02 07:28:27;;;;;;;15.23;2.60;;;;;;;6.88;100.00;98586.03;5026251;28;20116;-80
2022/11/02 07:30:54;;;;;;;13.18;2.13;;;;;;;6.88;100.00;98580.00;5023946;28;20029;-80
2022/11/02 07:33:20;;;;;;;9.90;1.98;;;;;;;7.13;100.00;98581.28;5026988;28;20028;-81
2022/11/02 07:35:46;;;;;;;11.73;2.30;;;;;;;7.09;100.00;98569.59;5053096;28;20410;-79
2022/11/02 07:38:13;;;;;;;14.27;2.47;;;;;;;7.26;100.00;98574.63;5037936;28;20483;-82
2022/11/02 07:40:41;;;;;;;15.93;3.00;;;;;;;7.30;100.00;98570.63;5035070;28;20029;-82
2022/11/02 07:43:08;;;;;;;10.98;1.80;;;;;;;7.49;100.00;98579.69;5021218;28;20029;-81
2022/11/02 07:45:34;;;;;;;19.70;3.70;;;;;;;7.46;100.00;98582.63;5036557;28;20055;-83
2022/11/02 07:47:59;;;;;;;10.25;1.75;;;;;;;7.24;100.00;98569.56;5018685;28;20086;-81
2022/11/02 07:50:25;;;;;;;12.45;2.28;;;;;;;7.66;100.00;98587.25;5060348;28;20029;-83
2022/11/02 07:52:54;;;;;;;9.93;2.13;;;;;;;7.60;100.00;98572.34;5038864;28;20564;-83
2022/11/02 07:55:22;;;;;;;9.73;1.95;;;;;;;7.75;100.00;98582.72;5035828;28;20033;-82
2022/11/02 07:57:59;;;;;;;8.02;2.30;;;;;;;7.83;100.00;98585.22;5039783;28;20471;-84
2022/11/02 08:00:27;;;;;;;12.30;1.90;;;;;;;7.77;100.00;98588.59;5024474;28;20028;-83
2022/11/02 08:02:54;;;;;;;14.25;2.15;;;;;;;7.72;100.00;98600.38;5024746;28;20492;-84
2022/11/02 08:05:20;;;;;;;8.38;2.25;;;;;;;7.86;100.00;98600.50;5050750;28;20067;-84
2022/11/02 08:07:45;;;;;;;9.50;2.05;;;;;;;7.86;100.00;98601.34;5031317;28;20032;-83
2022/11/02 08:10:11;;;;;;;10.07;2.10;;;;;;;7.86;100.00;98593.50;5021209;28;20057;-82
2022/11/02 08:12:37;;;;;;;12.27;1.88;;;;;;;7.87;100.00;98599.50;5042540;28;20485;-82
2022/11/02 08:15:03;;;;;;;12.00;2.15;;;;;;;7.98;100.00;98603.44;5040203;28;20439;-81
2022/11/02 08:17:29;;;;;;;8.88;1.80;;;;;;;8.14;100.00;98605.78;5047932;28;20056;-82
2022/11/02 08:19:54;;;;;;;8.90;2.00;;;;;;;8.32;100.00;98599.28;5047770;28;20060;-81
2022/11/02 08:22:20;;;;;;;14.27;1.85;;;;;;;8.33;100.00;98593.03;5024208;28;20047;-81
2022/11/02 08:24:46;;;;;;;12.45;2.30;;;;;;;8.46;100.00;98601.97;5042294;28;20028;-81
2022/11/02 08:27:11;;;;;;;9.55;1.55;;;;;;;8.53;100.00;98592.38;5044728;28;20120;-82
2022/11/02 08:29:37;;;;;;;11.00;2.75;;;;;;;8.63;100.00;98603.31;5042453;28;20107;-81
2022/11/02 08:32:02;;;;;;;17.42;2.40;;;;;;;8.68;100.00;98598.31;5041060;28;20071;-79
2022/11/02 08:34:28;;;;;;;8.77;2.53;;;;;;;8.73;100.00;98599.53;5043775;28;20030;-80
2022/11/02 08:36:53;;;;;;;17.27;2.05;;;;;;;8.80;100.00;98595.13;5044355;28;20040;-80
2022/11/02 08:39:19;;;;;;;12.70;2.25;;;;;;;8.71;100.00;98607.56;5035830;28;20116;-79
2022/11/02 08:41:44;;;;;;;16.45;2.28;;;;;;;8.90;100.00;98608.69;5046178;28;20479;-79
2022/11/02 08:44:12;;;;;;;8.95;1.80;;;;;;;9.02;100.00;98610.75;5018220;28;20416;-82
2022/11/02 08:46:38;;;;;;;10.18;2.95;;;;;;;9.04;100.00;98600.88;5062590;28;20044;-79
2022/11/02 08:49:03;;;;;;;12.07;1.83;;;;;;;9.11;100.00;98607.75;5050541;28;20393;-80
2022/11/02 08:51:29;;;;;;;16.65;2.95;;;;;;;9.09;100.00;98609.78;5023047;28;20363;-81
2022/11/02 08:53:55;;;;;;;12.00;1.98;;;;;;;9.12;100.00;98619.84;5048451;28;20036;-80
2022/11/02 08:56:20;;;;;;;13.05;2.53;;;;;;;9.20;100.00;98616.25;5034536;28;20031;-80
2022/11/02 08:58:46;;;;;;;20.27;4.80;;;;;;;9.20;100.00;98623.31;5017123;28;20431;-81
2022/11/02 09:01:11;;;;;;;12.77;2.30;;;;;;;9.17;100.00;98616.66;5048574;28;20483;-79
2022/11/02 09:03:37;;;;;;;13.95;2.03;;;;;;;9.12;100.00;98612.00;5036146;28;20448;-80
2022/11/02 09:06:03;;;;;;;8.75;2.05;;;;;;;9.23;100.00;98608.00;5025712;28;20021;-83
2022/11/02 09:08:29;;;;;;;13.63;2.55;;;;;;;9.38;100.00;98605.25;5024212;28;20033;-81
2022/11/02 09:11:01;;;;;;;9.50;2.17;;;;;;;9.53;100.00;98596.41;5022450;28;20036;-81
2022/11/02 09:13:27;;;;;;;13.32;2.00;;;;;;;9.54;100.00;98605.91;5017678;28;20071;-80
2022/11/02 09:15:55;;;;;;;14.60;2.35;;;;;;;9.70;100.00;98599.47;5052899;28;20490;-80
2022/11/02 09:18:21;;;;;;;13.45;2.03;;;;;;;9.70;100.00;98586.38;5046096;28;20553;-81
2022/11/02 09:20:47;;;;;;;18.60;2.50;;;;;;;9.85;100.00;98600.09;5023507;28;20024;-81
2022/11/02 09:23:15;;;;;;;12.25;2.80;;;;;;;9.89;100.00;98583.97;5042406;28;20020;-82
2022/11/02 09:25:40;;;;;;;11.80;3.15;;;;;;;10.20;100.00;98595.66;5043524;28;20032;-81
2022/11/02 09:28:06;;;;;;;9.65;1.90;;;;;;;10.24;100.00;98594.25;5056174;28;20096;-82
2022/11/02 09:30:32;;;;;;;12.55;2.55;;;;;;;10.20;100.00;98580.72;5043247;28;20024;-82
2022/11/02 09:33:03;;;;;;;14.40;3.08;;;;;;;10.38;100.00;98568.81;5027621;28;20029;-82
2022/11/02 09:35:41;;;;;;;19.60;2.45;;;;;;;10.56;100.00;98563.75;5033292;28;20107;-82
2022/11/02 09:38:07;;;;;;;15.20;2.45;;;;;;;10.62;100.00;98564.75;5042297;28;20044;-83
2022/11/02 09:40:42;;;;;;;17.13;3.08;;;;;;;10.83;100.00;98560.22;5039110;28;20032;-81
2022/11/02 09:43:14;;;;;;;24.17;3.28;;;;;;;10.69;100.00;98544.53;5045307;28;20492;-81
2022/11/02 09:46:03;;;;;;;14.85;2.60;;;;;;;10.64;100.00;98544.34;5047290;28;20040;-81
2022/11/02 09:48:52;;;;;;;8.63;2.65;;;;;;;10.82;100.00;98532.38;5057692;28;20035;-82
2022/11/02 09:51:34;;;;;;;9.13;2.35;;;;;;;10.89;100.00;98529.69;5039073;28;20445;-82
2022/11/02 09:54:18;;;;;;;11.48;3.20;;;;;;;11.08;100.00;98515.66;5052306;28;20037;-81
2022/11/02 09:56:45;;;;;;;12.63;2.58;;;;;;;10.80;100.00;98513.38;5059743;28;20020;-81
2022/11/02 09:59:14;;;;;;;20.17;3.28;;;;;;;10.92;100.00;98516.97;5038808;28;20040;-83
2022/11/02 10:02:00;;;;;;;10.45;2.92;;;;;;;11.12;100.00;98510.81;5058387;28;20051;-86
2022/11/02 10:04:55;;;;;;;12.98;3.08;;;;;;;11.09;100.00;98513.84;5060734;28;20103;-85
2022/11/02 10:07:43;;;;;;;18.45;3.47;;;;;;;10.92;100.00;98488.06;5058730;28;20075;-85
2022/11/02 10:10:30;;;;;;;10.43;2.70;;;;;;;11.25;100.00;98487.09;5033139;28;20036;-85
2022/11/02 10:13:09;;;;;;;18.77;2.88;;;;;;;11.38;100.00;98469.59;5053189;28;20035;-85
2022/11/02 10:15:47;;;;;;;11.75;3.13;;;;;;;11.53;100.00;98470.09;5056504;28;20104;-85
2022/11/02 10:18:19;;;;;;;12.07;3.08;;;;;;;11.77;100.00;98470.28;5049847;28;20047;-84
2022/11/02 10:20:49;;;;;;;19.73;3.22;;;;;;;11.69;100.00;98463.50;5039372;28;20040;-85
2022/11/02 10:23:31;;;;;;;13.07;3.20;;;;;;;11.73;100.00;98431.53;5040991;28;20040;-86
2022/11/02 10:25:58;;;;;;;14.27;3.03;;;;;;;11.85;100.00;98441.09;5055470;28;20450;-86
2022/11/02 10:28:29;;;;;;;15.40;3.80;;;;;;;11.99;100.00;98435.72;5053119;28;20029;-85
2022/11/02 10:30:56;;;;;;;22.23;3.63;;;;;;;11.80;100.00;98429.63;5053050;28;20020;-85
2022/11/02 10:33:27;;;;;;;17.50;3.50;;;;;;;11.51;100.00;98424.81;5055566;28;20038;-88
2022/11/02 10:35:58;;;;;;;18.63;3.80;;;;;;;11.70;100.00;98428.31;5043550;28;20033;-85
2022/11/02 10:38:27;;;;;;;16.90;3.08;;;;;;;11.78;100.00;98421.16;5036566;28;20025;-86
2022/11/02 10:41:15;;;;;;;16.20;3.67;;;;;;;11.80;100.00;98427.81;5045276;28;20036;-86
2022/11/02 10:43:57;;;;;;;22.90;3.90;;;;;;;11.69;100.00;98410.09;5050333;28;20079;-87
2022/11/02 10:46:31;;;;;;;13.20;3.38;;;;;;;11.62;100.00;98410.16;5045594;28;20101;-86
2022/11/02 10:49:18;;;;;;;14.13;3.03;;;;;;;11.56;100.00;98419.72;5046755;28;20052;-87
2022/11/02 10:51:48;;;;;;;13.20;3.65;;;;;;;11.89;100.00;98388.06;5057341;28;20426;-87
2022/11/02 10:54:16;;;;;;;16.92;4.25;;;;;;;11.98;100.00;98386.75;5035473;28;20021;-86
2022/11/02 10:56:46;;;;;;;19.70;3.40;;;;;;;11.62;100.00;98396.25;5033264;28;20040;-86
2022/11/02 10:59:24;;;;;;;17.98;3.00;;;;;;;11.85;100.00;98391.13;5064258;28;20420;-86
2022/11/02 11:01:50;;;;;;;16.42;3.22;;;;;;;11.86;100.00;98390.13;5054340;28;20545;-87
2022/11/02 11:04:27;;;;;;;28.55;3.47;;;;;;;11.75;100.00;98372.41;5054646;28;20029;-86
2022/11/02 11:06:55;;;;;;;25.15;3.70;;;;;;;11.56;100.00;98369.78;5041625;28;20052;-86
2022/11/02 11:09:30;;;;;;;22.67;3.67;;;;;;;11.58;100.00;98351.97;5034424;28;20024;-86
2022/11/02 11:12:01;;;;;;;17.83;3.65;;;;;;;11.36;100.00;98354.22;5041728;28;20391;-86
2022/11/02 11:14:29;;;;;;;14.18;3.15;;;;;;;11.45;100.00;98360.00;5023796;28;20035;-87
2022/11/02 11:16:58;;;;;;;15.70;4.45;;;;;;;11.79;100.00;98347.31;5055476;28;20489;-85
2022/11/02 11:19:27;;;;;;;17.95;3.63;;;;;;;11.81;100.00;98334.75;5044724;28;20394;-85
2022/11/02 11:21:52;;;;;;;18.90;3.88;;;;;;;11.97;100.00;98317.56;5049918;28;20029;-86
2022/11/02 11:24:28;;;;;;;17.08;3.20;;;;;;;11.52;100.00;98316.03;5023114;28;20376;-86
2022/11/02 11:27:22;;;;;;;25.33;4.10;;;;;;;11.85;100.00;98314.88;5024737;28;20536;-85
2022/11/02 11:29:53;;;;;;;13.95;4.25;;;;;;;11.67;100.00;98304.38;5055853;28;20026;-85
2022/11/02 11:32:26;;;;;;;21.63;3.95;;;;;;;11.74;100.00;98291.94;5054960;28;20055;-84
2022/11/02 11:35:02;;;;;;;22.58;4.05;;;;;;;11.83;100.00;98290.63;5050575;28;20483;-85
2022/11/02 11:37:28;;;;;;;15.10;3.28;;;;;;;11.54;100.00;98277.19;5029395;28;20033;-85
2022/11/02 11:40:02;;;;;;;12.93;3.38;;;;;;;11.83;100.00;98274.88;5045092;28;20030;-85
2022/11/02 11:42:35;;;;;;;21.33;4.28;;;;;;;11.76;100.00;98273.34;5031743;28;20044;-85
2022/11/02 11:45:19;;;;;;;23.10;3.78;;;;;;;11.83;100.00;98258.28;5037741;28;20029;-85
2022/11/02 11:47:54;;;;;;;18.70;4.88;;;;;;;12.05;100.00;98265.69;5058581;28;20034;-84
2022/11/02 11:50:20;;;;;;;22.60;4.25;;;;;;;11.98;100.00;98240.28;5054799;28;20116;-85
2022/11/02 11:53:06;;;;;;;21.85;3.78;;;;;;;12.17;100.00;98242.06;5054509;28;20543;-85
2022/11/02 11:55:32;;;;;;;22.13;4.65;;;;;;;12.21;100.00;98235.34;5055474;28;20437;-85